San Jon, NM (88434)

8:05 PM MDT on July 25, 2014 (GMT -0600)
Tucumcari Municipal (KTCC) Elev 4065 ft | 35.18 °N, 103.60 °W | Change Station

Current weather conditions updated 12 minutes ago

Clear
Clear
95 °F
Feels Like 95 °F
N
15
Wind Variable Wind from South
Gusts 24 mph

Tomorrow is forecast to be nearly the same temperature as today.

Today
High -- | Low -- °F
--% Chance of Precip.
Yesterday
High -- | Low -- °F
Precip. -- in
5:56 AM 8:01 PM
Waning Crescent, 1% visible
Pressure 29.70 in
Visibility 10.0 miles
Clouds Clear
Dew Point 44 °F
Humidity 17%
Rainfall 0.00 in
Snow Depth Not available.
UV 0 out of 12
Pollen 5.60 out of 12
Air Quality Not available.
Flu Activity Not available.
METAR KTCC 260153Z AUTO 19013G21KT 10SM CLR 35/07 A2993 RMK AO2 SLP056 T03500067 $

More Conditions Fewer Conditions

Pressure 29.70 in
Visibility 10.0 miles
Clouds Clear
Dew Point 44 °F
Humidity 17%
Rainfall 0.00 in
Snow Depth Not available.
UV 0 out of 12
Pollen 5.60 out of 12
Air Quality Not available.
Flu Activity Not available.
METAR KTCC 260153Z AUTO 19013G21KT 10SM CLR 35/07 A2993 RMK AO2 SLP056 T03500067 $

More Conditions Fewer Conditions

10-Day Weather Forecast

Almanac

Astronomy

Jul. 25, 2014 Rise Set
Actual Time 5:56 AM MDT 8:01 PM MDT
Civil Twilight 5:28 AM MDT 8:29 PM MDT
Nautical Twilight 4:53 AM MDT 9:04 PM MDT
Astronomical Twilight 4:16 AM MDT 9:41 PM MDT
Moon 4:56 AM MDT (7/25) 7:02 PM MDT (7/25)
Length of Visible Light 15h 01m
Length of Day
14h 04m
Tomorrow will be 1m 28s shorter.
Waning Crescent, 1% of the Moon is Illuminated
Today
Waning Crescent
Jul 26
New
Aug 3
First Quarter
Aug 10
Full
Aug 17
Last Quarter

Today's Extremes

State Highs State Lows

Community

WunderPhotos

Upload Photos

1,737,475 photos uploaded!

Nearby

Snow Depth

Station Depth Elevation
Wesner Springs 1 in 11120 ft
Santa Fe 0 in 11445 ft
North Costilla 1 in 10600 ft
Sierra Blanca 0 in 10280 ft
Silver Creek Divide 0 in 9000 ft

Earthquake Activity

City Distance Mag. Time & Date
No recent earthquake activity has been reported nearby.
Minimum magnitude displayed is 2.5.

Coastal Water Temperatures

Place Temperature
No Stations Reporting

Nearby Weather Stations

Station Location Temp. Heat Index Dew Point Humidity Wind Precip. Elev Updated Type
MesoWest MATERW , Tucumcari, NM 95 °F 91 °F - - SW  at  5 mph 0.00 in / hr 4160 ft 6:45 PM MDT MADIS
MesoWest SANDSP , Logan, NM 98 °F 93 °F - - South  at  11 mph 0.00 in / hr 3937 ft 6:35 PM MDT MADIS

Show More Stations Show Fewer Stations